createdAt,value
2024-02-11T00:01:22.864Z,99098.13
2024-02-11T00:03:51.102Z,99088.41
2024-02-11T00:06:19.309Z,99091.34
2024-02-11T00:08:50.887Z,99090.50
2024-02-11T00:11:19.251Z,99083.34
2024-02-11T00:13:47.734Z,99082.28
2024-02-11T00:16:16.219Z,99086.06
2024-02-11T00:18:45.823Z,99083.34
2024-02-11T00:21:14.567Z,99076.19
2024-02-11T00:23:46.156Z,99077.88
2024-02-11T00:26:14.824Z,99076.81
2024-02-11T00:28:43.285Z,99077.66
2024-02-11T00:31:13.325Z,99073.03
2024-02-11T00:33:42.391Z,99072.19
2024-02-11T00:36:12.269Z,99075.78
2024-02-11T00:38:40.641Z,99070.28
2024-02-11T00:41:08.934Z,99065.66
2024-02-11T00:43:38.058Z,99054.72
2024-02-11T00:46:06.419Z,99062.09
2024-02-11T00:48:34.709Z,99063.13
2024-02-11T00:51:03.167Z,99048.59
2024-02-11T00:53:32.768Z,99057.66
2024-02-11T00:56:01.054Z,99045.88
2024-02-11T00:58:29.299Z,99047.75
2024-02-11T01:00:57.455Z,99046.91
2024-02-11T01:03:25.596Z,99045.22
2024-02-11T01:05:54.187Z,99040.81
2024-02-11T01:08:23.720Z,99038.06
2024-02-11T01:10:53.342Z,99038.28
2024-02-11T01:13:21.881Z,99028.34
2024-02-11T01:15:50.195Z,99030.91
2024-02-11T01:18:19.118Z,99027.34
2024-02-11T01:20:49.334Z,99034.50
2024-02-11T01:25:47.133Z,99026.28
2024-02-11T01:28:16.673Z,99021.84
2024-02-11T01:30:46.385Z,99014.50
2024-02-11T01:33:14.634Z,99012.78
2024-02-11T01:35:43.279Z,99022.88
2024-02-11T01:38:12.597Z,99020.97
2024-02-11T01:40:41.760Z,99023.94
2024-02-11T01:43:11.320Z,99034.03
2024-02-11T01:45:40.951Z,99023.09
2024-02-11T01:48:11.418Z,99022.69
2024-02-11T01:50:42.018Z,99019.75
2024-02-11T01:53:11.478Z,99017.66
2024-02-11T01:55:43.104Z,99015.56
2024-02-11T01:58:11.656Z,99004.41
2024-02-11T02:00:42.317Z,99005.25
2024-02-11T02:03:11.306Z,99004.22
2024-02-11T02:05:40.486Z,98994.13
2024-02-11T02:08:10.178Z,99006.75
2024-02-11T02:10:38.944Z,98998.53
2024-02-11T02:13:07.197Z,98994.97
2024-02-11T02:15:35.362Z,99000.44
2024-02-11T02:18:05.507Z,98988.66
2024-02-11T02:20:33.773Z,98987.81
2024-02-11T02:23:03.694Z,98987.81
2024-02-11T02:25:34.163Z,98993.28
2024-02-11T02:28:05.598Z,98994.31
2024-02-11T02:30:35.140Z,98990.94
2024-02-11T02:33:03.462Z,99001.03
2024-02-11T02:35:32.875Z,98995.75
2024-02-11T02:38:02.554Z,98990.28
2024-02-11T02:40:32.381Z,98998.72
2024-02-11T02:43:01.920Z,98996.19
2024-02-11T02:45:30.103Z,98998.91
2024-02-11T02:47:58.342Z,98985.22
2024-02-11T02:50:26.558Z,98982.50
2024-02-11T02:52:54.807Z,98986.06
2024-02-11T02:55:24.339Z,98980.38
2024-02-11T02:57:52.890Z,98973.03
2024-02-11T03:00:22.188Z,98973.88
2024-02-11T03:02:53.853Z,98970.28
2024-02-11T03:05:23.658Z,98975.56
2024-02-11T03:07:54.615Z,98967.34
2024-02-11T03:10:24.588Z,98975.56
2024-02-11T03:12:52.830Z,98967.34
2024-02-11T03:15:21.042Z,98969.03
2024-02-11T03:17:50.064Z,98970.09
2024-02-11T03:20:18.294Z,98970.09
2024-02-11T03:22:46.734Z,98968.41
2024-02-11T03:25:16.431Z,98966.72
2024-02-11T03:27:48.127Z,98967.56
2024-02-11T03:30:18.342Z,98968.59
2024-02-11T03:32:48.565Z,98959.75
2024-02-11T03:35:17.739Z,98962.28
2024-02-11T03:37:46.258Z,98965.22
2024-02-11T03:40:18.110Z,98958.91
2024-02-11T03:42:48.343Z,98967.13
2024-02-11T03:45:20.208Z,98963.50
2024-02-11T03:47:50.074Z,98964.38
2024-02-11T03:50:20.268Z,98960.59
2024-02-11T03:52:48.539Z,98953.03
2024-02-11T03:55:16.918Z,98958.09
2024-02-11T03:57:45.149Z,98957.03
2024-02-11T04:00:17.673Z,98954.13
2024-02-11T04:02:45.762Z,98945.91
2024-02-11T04:05:17.482Z,98952.22
2024-02-11T04:07:48.253Z,98951.38
2024-02-11T04:10:21.216Z,98941.28
2024-02-11T04:12:53.214Z,98933.06
2024-02-11T04:15:24.372Z,98933.06
2024-02-11T04:17:54.965Z,98938.53
2024-02-11T04:20:26.980Z,98935.97
2024-02-11T04:22:58.991Z,98934.28
2024-02-11T04:25:30.476Z,98933.44
2024-02-11T04:27:58.848Z,98944.59
2024-02-11T04:30:31.066Z,98946.50
2024-02-11T04:33:00.411Z,98946.72
2024-02-11T04:35:28.842Z,98945.88
2024-02-11T04:37:57.134Z,98946.91
2024-02-11T04:40:27.005Z,98951.53
2024-02-11T04:42:57.960Z,98954.47
2024-02-11T04:45:28.355Z,98950.03
2024-02-11T04:48:00.573Z,98957.41
2024-02-11T04:50:30.177Z,98954.03
2024-02-11T04:53:03.740Z,98954.88
2024-02-11T04:55:40.552Z,98954.88
2024-02-11T04:58:16.566Z,98962.03
2024-02-11T05:00:49.086Z,98957.19
2024-02-11T05:03:20.447Z,98957.88
2024-02-11T05:05:51.651Z,98959.34
2024-02-11T05:08:22.290Z,98955.34
2024-02-11T05:10:53.750Z,98962.31
2024-02-11T05:13:25.259Z,98953.69
2024-02-11T05:15:58.775Z,98973.69
2024-02-11T05:18:30.737Z,98968.06
2024-02-11T05:20:59.196Z,98967.22
2024-02-11T05:23:30.125Z,98969.94
2024-02-11T05:26:00.603Z,98968.91
2024-02-11T05:28:28.813Z,98980.91
2024-02-11T05:30:58.303Z,98977.31
2024-02-11T05:33:26.912Z,98973.69
2024-02-11T05:35:55.452Z,98973.69
2024-02-11T05:38:25.595Z,98968.44
2024-02-11T05:40:58.627Z,98973.91
2024-02-11T05:43:28.133Z,98965.91
2024-02-11T05:45:58.387Z,98966.94
2024-02-11T05:48:28.766Z,98968.81
2024-02-11T05:50:56.968Z,98963.56
2024-02-11T05:53:25.146Z,98962.91
2024-02-11T05:55:54.438Z,98964.81
2024-02-11T05:58:23.230Z,98965.88
2024-02-11T06:00:51.616Z,98963.34
2024-02-11T06:03:22.797Z,98958.91
2024-02-11T06:05:51.448Z,98962.66
2024-02-11T06:08:21.490Z,98959.28
2024-02-11T06:10:50.473Z,98967.72
2024-02-11T06:13:19.292Z,98966.03
2024-02-11T06:15:48.948Z,98961.59
2024-02-11T06:18:18.889Z,98970.03
2024-02-11T06:20:48.674Z,98958.44
2024-02-11T06:23:17.807Z,98963.28
2024-02-11T06:25:46.049Z,98966.00
2024-02-11T06:28:15.045Z,98959.88
2024-02-11T06:30:43.809Z,98957.97
2024-02-11T06:33:12.354Z,98962.44
2024-02-11T06:35:41.357Z,98965.16
2024-02-11T06:38:13.498Z,98963.06
2024-02-11T06:40:41.973Z,98966.25
2024-02-11T06:43:13.014Z,98973.41
2024-02-11T06:45:47.731Z,98969.59
2024-02-11T06:48:16.783Z,98982.25
2024-02-11T06:50:45.139Z,98977.59
2024-02-11T06:53:14.772Z,98971.28
2024-02-11T06:55:43.129Z,98975.09
2024-02-11T06:58:11.907Z,98975.09
2024-02-11T07:00:40.576Z,98981.59
2024-02-11T07:03:11.283Z,98986.22
2024-02-11T07:05:42.494Z,98985.38
2024-02-11T07:08:12.164Z,98990.22
2024-02-11T07:10:42.950Z,98991.28
2024-02-11T07:13:11.107Z,98992.53
2024-02-11T07:15:39.436Z,98991.47
2024-02-11T07:18:08.338Z,98993.53
2024-02-11T07:20:37.113Z,98998.19
2024-02-11T07:23:06.824Z,99001.97
2024-02-11T07:25:35.266Z,99002.16
2024-02-11T07:28:06.210Z,99000.69
2024-02-11T07:30:35.512Z,99002.56
2024-02-11T07:33:03.926Z,99001.94
2024-02-11T07:35:32.325Z,98999.41
2024-02-11T07:38:03.311Z,99004.88
2024-02-11T07:40:32.575Z,99008.66
2024-02-11T07:43:00.811Z,99005.09
2024-02-11T07:45:30.532Z,99003.19
2024-02-11T07:47:59.427Z,99001.09
2024-02-11T07:50:28.618Z,99003.63
2024-02-11T07:52:57.180Z,99005.09
2024-02-11T07:55:25.460Z,99003.84
2024-02-11T07:57:53.819Z,99008.28
2024-02-11T08:00:22.452Z,99003.66
2024-02-11T08:02:53.034Z,99004.50
2024-02-11T08:05:24.347Z,99010.81
2024-02-11T08:07:54.322Z,99013.75
2024-02-11T08:10:24.167Z,99004.50
2024-02-11T08:12:53.379Z,99007.44
2024-02-11T08:15:21.828Z,99010.16
2024-02-11T08:17:51.934Z,99011.22
2024-02-11T08:20:21.202Z,99009.53
2024-02-11T08:22:50.357Z,99016.91
2024-02-11T08:25:18.936Z,99016.25
2024-02-11T08:27:47.282Z,99015.41
2024-02-11T08:30:15.606Z,99022.78
2024-02-11T08:32:45.309Z,99020.25
2024-02-11T08:35:15.755Z,99026.75
2024-02-11T08:37:44.718Z,99030.56
2024-02-11T08:40:13.915Z,99037.91
2024-02-11T08:42:42.265Z,99033.94
2024-02-11T08:45:12.499Z,99039.84
2024-02-11T08:47:41.571Z,99050.00
2024-02-11T08:50:12.628Z,99052.75
2024-02-11T08:52:43.743Z,99058.91
2024-02-11T08:55:12.839Z,99058.97
2024-02-11T08:57:41.157Z,99052.69
2024-02-11T09:00:14.901Z,99057.34
2024-02-11T09:02:44.457Z,99060.97
2024-02-11T09:05:13.221Z,99059.31
2024-02-11T09:07:44.535Z,99051.53
2024-02-11T09:10:15.892Z,99058.31
2024-02-11T09:12:44.676Z,99049.88
2024-02-11T09:15:17.914Z,99057.69
2024-02-11T09:17:47.623Z,99052.00
2024-02-11T09:20:16.850Z,99054.53
2024-02-11T09:22:47.030Z,99054.53
2024-02-11T09:25:16.192Z,99058.97
2024-02-11T09:27:44.915Z,99068.88
2024-02-11T09:30:17.046Z,99060.66
2024-02-11T09:32:47.988Z,99056.25
2024-02-11T09:35:18.586Z,99065.31
2024-02-11T09:37:48.289Z,99066.31
2024-02-11T09:40:19.282Z,99060.00
2024-02-11T09:42:48.781Z,99072.84
2024-02-11T09:45:19.542Z,99064.00
2024-02-11T09:47:54.121Z,99071.38
2024-02-11T09:50:25.311Z,99062.53
2024-02-11T09:52:55.303Z,99064.63
2024-02-11T09:55:23.828Z,99068.19
2024-02-11T09:57:52.704Z,99070.72
2024-02-11T10:00:22.184Z,99073.91
2024-02-11T10:02:52.464Z,99077.28
2024-02-11T10:05:25.374Z,99076.88
2024-02-11T10:07:57.536Z,99081.09
2024-02-11T10:10:26.748Z,99079.84
2024-02-11T10:12:58.330Z,99079.44
2024-02-11T10:15:28.051Z,99081.97
2024-02-11T10:17:57.449Z,99084.69
2024-02-11T10:20:26.390Z,99084.53
2024-02-11T10:22:57.180Z,99083.69
2024-02-11T10:25:28.352Z,99079.88
2024-02-11T10:27:57.203Z,99084.09
2024-02-11T10:30:25.706Z,99084.75
2024-02-11T10:32:59.725Z,99085.59
2024-02-11T10:35:30.499Z,99085.38
2024-02-11T10:38:02.369Z,99079.47
2024-02-11T10:40:31.198Z,99075.69
2024-02-11T10:43:01.168Z,99076.34
2024-02-11T10:45:29.865Z,99072.56
2024-02-11T10:47:58.860Z,99063.28
2024-02-11T10:50:28.524Z,99060.75
2024-02-11T10:53:04.683Z,99058.84
2024-02-11T10:55:42.374Z,99058.66
2024-02-11T10:58:13.296Z,99065.81
2024-02-11T11:00:44.695Z,99066.44
2024-02-11T11:03:16.031Z,99069.81
2024-02-11T11:05:45.437Z,99054.44
2024-02-11T11:08:15.948Z,99050.03
2024-02-11T11:10:44.432Z,99043.94
2024-02-11T11:13:14.007Z,99038.88
2024-02-11T11:15:52.973Z,99054.72
2024-02-11T11:18:25.361Z,99039.53
2024-02-11T11:20:54.511Z,99039.97
2024-02-11T11:23:28.227Z,99048.41
2024-02-11T11:25:57.883Z,99042.50
2024-02-11T11:28:31.522Z,99051.38
2024-02-11T11:30:59.985Z,99054.75
2024-02-11T11:33:35.530Z,99053.69
2024-02-11T11:36:05.266Z,99059.78
2024-02-11T11:38:35.218Z,99064.88
2024-02-11T11:41:04.440Z,99067.41
2024-02-11T11:43:33.703Z,99062.56
2024-02-11T11:46:06.626Z,99069.50
2024-02-11T11:48:37.760Z,99067.41
2024-02-11T11:51:08.212Z,99069.09
2024-02-11T11:53:38.978Z,99080.50
2024-02-11T11:56:08.155Z,99072.69
2024-02-11T11:58:36.484Z,99073.75
2024-02-11T12:01:06.703Z,99073.75
2024-02-11T12:03:38.145Z,99068.69
2024-02-11T12:06:07.434Z,99068.88
2024-02-11T12:08:39.051Z,99066.13
2024-02-11T12:11:09.439Z,99060.47
2024-02-11T12:13:40.687Z,99066.13
2024-02-11T12:16:16.545Z,99062.53
2024-02-11T12:18:46.763Z,99055.38
2024-02-11T12:21:16.549Z,99059.16
2024-02-11T12:23:46.661Z,99057.28
2024-02-11T12:26:21.102Z,99062.97
2024-02-11T12:28:53.189Z,99071.41
2024-02-11T12:31:24.523Z,99066.16
2024-02-11T12:33:54.142Z,99070.78
2024-02-11T12:36:26.772Z,99082.81
2024-02-11T12:38:59.060Z,99077.53
2024-02-11T12:41:30.332Z,99087.88
2024-02-11T12:43:58.653Z,99081.72
2024-02-11T12:46:27.020Z,99069.91
2024-02-11T12:48:56.611Z,99070.97
2024-02-11T12:51:24.915Z,99069.06
2024-02-11T12:53:53.885Z,99061.28
2024-02-11T12:56:23.780Z,99064.03
2024-02-11T12:58:52.215Z,99068.66
2024-02-11T13:01:21.736Z,99060.66
2024-02-11T13:03:50.081Z,99066.34
2024-02-11T13:06:19.069Z,99067.41
2024-02-11T13:08:49.034Z,99071.19
2024-02-11T13:11:23.195Z,99075.00
2024-02-11T13:13:58.757Z,99082.38
2024-02-11T13:16:27.167Z,99078.75
2024-02-11T13:18:55.456Z,99077.06
2024-02-11T13:21:23.690Z,99076.91
2024-02-11T13:23:51.880Z,99079.41
2024-02-11T13:26:20.196Z,99073.94
2024-02-11T13:28:49.128Z,99069.09
2024-02-11T13:31:25.401Z,99072.88
2024-02-11T13:33:55.924Z,99074.81
2024-02-11T13:36:24.514Z,99068.66
2024-02-11T13:38:52.989Z,99078.81
2024-02-11T13:41:21.465Z,99078.19
2024-02-11T13:43:49.720Z,99076.69
2024-02-11T13:46:19.451Z,99074.56
2024-02-11T13:48:54.204Z,99074.41
2024-02-11T13:51:23.624Z,99073.13
2024-02-11T13:53:51.914Z,99077.53
2024-02-11T13:56:20.126Z,99076.50
2024-02-11T13:58:48.477Z,99071.44
2024-02-11T14:01:18.185Z,99068.69
2024-02-11T14:03:48.060Z,99074.19
2024-02-11T14:06:16.986Z,99074.19
2024-02-11T14:08:46.623Z,99077.75
2024-02-11T14:11:15.136Z,99083.47
2024-02-11T14:13:43.404Z,99078.16
2024-02-11T14:16:12.423Z,99079.22
2024-02-11T14:18:42.060Z,99086.41
2024-02-11T14:21:10.445Z,99080.50
2024-02-11T14:23:41.171Z,99081.34
2024-02-11T14:26:10.430Z,99072.47
2024-02-11T14:28:39.012Z,99059.81
2024-02-11T14:31:07.160Z,99062.78
2024-02-11T14:33:35.567Z,99055.59
2024-02-11T14:36:06.478Z,99064.69
2024-02-11T14:38:35.014Z,99067.41
2024-02-11T14:41:04.215Z,99070.16
2024-02-11T14:43:35.806Z,99072.28
2024-02-11T14:46:05.304Z,99065.72
2024-02-11T14:48:33.843Z,99060.84
2024-02-11T14:51:03.296Z,99062.34
2024-02-11T14:53:33.564Z,99063.63
2024-02-11T14:56:02.157Z,99060.66
2024-02-11T14:58:30.978Z,99059.16
2024-02-11T15:00:59.267Z,99057.50
2024-02-11T15:03:30.452Z,99064.03
2024-02-11T15:05:58.993Z,99072.03
2024-02-11T15:08:28.165Z,99072.88
2024-02-11T15:10:58.806Z,99071.00
2024-02-11T15:13:27.820Z,99067.19
2024-02-11T15:15:56.059Z,99064.25
2024-02-11T15:18:24.222Z,99076.25
2024-02-11T15:20:52.466Z,99065.28
2024-02-11T15:23:20.655Z,99071.00
2024-02-11T15:25:50.039Z,99071.19
2024-02-11T15:28:19.943Z,99064.88
2024-02-11T15:30:48.573Z,99068.66
2024-02-11T15:33:17.444Z,99071.63
2024-02-11T15:35:52.463Z,99075.44
2024-02-11T15:38:27.114Z,99080.28
2024-02-11T15:40:56.682Z,99081.34
2024-02-11T15:43:26.527Z,99081.94
2024-02-11T15:45:54.692Z,99083.84
2024-02-11T15:48:23.398Z,99077.72
2024-02-11T15:50:51.830Z,99081.94
2024-02-11T15:53:20.275Z,99065.72
2024-02-11T15:55:50.888Z,99086.81
2024-02-11T15:58:20.163Z,99076.91
2024-02-11T16:00:49.885Z,99079.41
2024-02-11T16:03:18.201Z,99076.47
2024-02-11T16:05:47.159Z,99087.00
2024-02-11T16:08:15.835Z,99080.03
2024-02-11T16:10:43.234Z,99078.59
2024-02-11T16:13:11.468Z,99076.28
2024-02-11T16:15:40.075Z,99083.22
2024-02-11T16:18:09.871Z,99085.75
2024-02-11T16:20:38.389Z,99085.53
2024-02-11T16:23:06.853Z,99087.22
2024-02-11T16:25:38.776Z,99097.19
2024-02-11T16:28:08.084Z,99096.31
2024-02-11T16:30:37.125Z,99094.63
2024-02-11T16:33:06.468Z,99093.78
2024-02-11T16:35:36.502Z,99097.78
2024-02-11T16:38:06.000Z,99091.47
2024-02-11T16:40:34.259Z,99089.97
2024-02-11T16:43:02.954Z,99092.09
2024-02-11T16:45:31.270Z,99088.91
2024-02-11T16:47:59.596Z,99088.06
2024-02-11T16:50:28.021Z,99091.44
2024-02-11T16:52:58.013Z,99099.88
2024-02-11T16:55:26.293Z,99100.31
2024-02-11T16:57:54.464Z,99105.16
2024-02-11T17:00:23.251Z,99109.13
2024-02-11T17:02:51.959Z,99109.56
2024-02-11T17:05:20.493Z,99103.44
2024-02-11T17:07:49.951Z,99103.84
2024-02-11T17:10:22.081Z,99109.72
2024-02-11T17:12:50.934Z,99105.31
2024-02-11T17:15:19.298Z,99112.47
2024-02-11T17:17:50.253Z,99113.97
2024-02-11T17:20:25.122Z,99109.56
2024-02-11T17:22:55.803Z,99107.91
2024-02-11T17:25:25.773Z,99113.81
2024-02-11T17:27:55.926Z,99106.63
2024-02-11T17:30:25.684Z,99117.19
2024-02-11T17:32:59.493Z,99119.72
2024-02-11T17:35:31.818Z,99114.88
2024-02-11T17:38:01.187Z,99111.28
2024-02-11T17:40:31.474Z,99119.31
2024-02-11T17:43:00.238Z,99121.22
2024-02-11T17:45:29.108Z,99125.00
2024-02-11T17:47:57.584Z,99118.88
2024-02-11T17:50:26.884Z,99122.69
2024-02-11T17:52:55.880Z,99127.28
2024-02-11T17:55:24.196Z,99127.50
2024-02-11T17:57:53.918Z,99132.38
2024-02-11T18:00:23.463Z,99133.81
2024-02-11T18:02:52.179Z,99131.91
2024-02-11T18:05:21.497Z,99144.13
2024-02-11T18:07:50.205Z,99141.81
2024-02-11T18:10:19.602Z,99142.88
2024-02-11T18:12:49.505Z,99145.81
2024-02-11T18:15:20.102Z,99149.63
2024-02-11T18:17:50.518Z,99144.34
2024-02-11T18:20:19.639Z,99139.88
2024-02-11T18:22:49.341Z,99149.38
2024-02-11T18:25:24.493Z,99143.25
2024-02-11T18:28:04.801Z,99145.34
2024-02-11T18:30:36.998Z,99141.09
2024-02-11T18:33:05.656Z,99151.44
2024-02-11T18:35:34.496Z,99145.28
2024-02-11T18:38:03.118Z,99151.81
2024-02-11T18:40:32.084Z,99146.75
2024-02-11T18:43:00.290Z,99145.28
2024-02-11T18:45:28.586Z,99152.66
2024-02-11T18:47:58.264Z,99151.19
2024-02-11T18:50:26.933Z,99148.66
2024-02-11T18:52:55.385Z,99152.41
2024-02-11T18:55:23.839Z,99151.97
2024-02-11T18:57:52.190Z,99157.66
2024-02-11T19:00:21.565Z,99148.81
2024-02-11T19:02:49.798Z,99162.72
2024-02-11T19:05:19.317Z,99149.22
2024-02-11T19:07:47.712Z,99147.72
2024-02-11T19:10:19.462Z,99149.59
2024-02-11T19:12:48.486Z,99148.13
2024-02-11T19:15:16.882Z,99149.38
2024-02-11T19:17:49.884Z,99154.22
2024-02-11T19:20:20.631Z,99154.63
2024-02-11T19:22:49.666Z,99156.69
2024-02-11T19:25:18.709Z,99156.91
2024-02-11T19:27:47.532Z,99152.69
2024-02-11T19:30:16.745Z,99157.31
2024-02-11T19:32:45.309Z,99156.69
2024-02-11T19:35:15.361Z,99145.94
2024-02-11T19:37:45.162Z,99157.09
2024-02-11T19:40:14.412Z,99154.34
2024-02-11T19:42:43.414Z,99151.41
2024-02-11T19:45:13.304Z,99153.09
2024-02-11T19:47:41.708Z,99160.69
2024-02-11T19:50:11.678Z,99156.69
2024-02-11T19:52:40.189Z,99155.47
2024-02-11T19:55:11.821Z,99156.13
2024-02-11T19:57:41.517Z,99155.91
2024-02-11T20:00:13.703Z,99163.06
2024-02-11T20:02:42.359Z,99157.59
2024-02-11T20:05:13.738Z,99157.81
2024-02-11T20:07:42.441Z,99167.50
2024-02-11T20:10:15.587Z,99158.44
2024-02-11T20:12:44.456Z,99164.13
2024-02-11T20:15:13.873Z,99161.59
2024-02-11T20:17:43.652Z,99168.13
2024-02-11T20:20:15.521Z,99157.38
2024-02-11T20:22:45.014Z,99168.34
2024-02-11T20:25:15.120Z,99167.66
2024-02-11T20:27:43.490Z,99174.19
2024-02-11T20:30:14.380Z,99177.97
2024-02-11T20:32:45.112Z,99179.03
2024-02-11T20:35:14.725Z,99177.34
2024-02-11T20:37:42.899Z,99175.84
2024-02-11T20:40:17.631Z,99184.28
2024-02-11T20:42:46.314Z,99178.16
2024-02-11T20:45:16.702Z,99185.53
2024-02-11T20:47:47.049Z,99181.28
2024-02-11T20:50:15.920Z,99184.00
2024-02-11T20:52:44.162Z,99184.41
2024-02-11T20:55:14.032Z,99187.56
2024-02-11T20:57:43.634Z,99184.19
2024-02-11T21:00:22.146Z,99183.56
2024-02-11T21:02:51.862Z,99195.56
2024-02-11T21:05:20.809Z,99189.41
2024-02-11T21:07:49.310Z,99194.25
2024-02-11T21:10:19.040Z,99199.06
2024-02-11T21:12:47.376Z,99188.31
2024-02-11T21:15:16.539Z,99197.38
2024-02-11T21:17:45.342Z,99191.50
2024-02-11T21:20:14.669Z,99197.81
2024-02-11T21:22:44.034Z,99197.63
2024-02-11T21:25:14.897Z,99201.66
2024-02-11T21:27:53.148Z,99189.47
2024-02-11T21:30:28.005Z,99203.78
2024-02-11T21:32:58.917Z,99201.91
2024-02-11T21:35:28.339Z,99205.47
2024-02-11T21:37:56.799Z,99205.69
2024-02-11T21:40:25.840Z,99203.59
2024-02-11T21:42:55.795Z,99203.59
2024-02-11T21:45:23.969Z,99204.63
2024-02-11T21:47:52.665Z,99204.63
2024-02-11T21:50:22.582Z,99205.69
2024-02-11T21:52:51.034Z,99210.31
2024-02-11T21:55:19.735Z,99204.84
2024-02-11T21:57:48.269Z,99202.31
2024-02-11T22:00:18.463Z,99205.25
2024-02-11T22:02:48.263Z,99209.88
2024-02-11T22:05:20.118Z,99207.34
2024-02-11T22:07:49.561Z,99211.97
2024-02-11T22:10:18.529Z,99212.34
2024-02-11T22:12:49.002Z,99212.56
2024-02-11T22:15:19.170Z,99202.66
2024-02-11T22:17:49.680Z,99211.06
2024-02-11T22:20:18.342Z,99203.06
2024-02-11T22:22:46.954Z,99210.63
2024-02-11T22:25:16.049Z,99208.94
2024-02-11T22:27:44.402Z,99208.09
2024-02-11T22:30:13.662Z,99212.91
2024-02-11T22:32:43.512Z,99212.06
2024-02-11T22:35:14.290Z,99208.25
2024-02-11T22:37:43.049Z,99209.09
2024-02-11T22:40:15.736Z,99216.94
2024-02-11T22:42:43.987Z,99219.47
2024-02-11T22:45:13.482Z,99218.22
2024-02-11T22:47:43.196Z,99227.09
2024-02-11T22:50:13.041Z,99223.31
2024-02-11T22:52:41.653Z,99224.16
2024-02-11T22:55:12.105Z,99226.03
2024-02-11T22:57:41.210Z,99228.56
2024-02-11T23:00:29.522Z,99224.16
2024-02-11T23:03:00.989Z,99222.47
2024-02-11T23:05:29.999Z,99224.16
2024-02-11T23:07:58.194Z,99227.09
2024-02-11T23:10:26.455Z,99228.13
2024-02-11T23:12:54.907Z,99231.91
2024-02-11T23:15:23.868Z,99224.75
2024-02-11T23:17:52.173Z,99231.28
2024-02-11T23:20:22.152Z,99234.88
2024-02-11T23:22:51.526Z,99234.41
2024-02-11T23:25:20.733Z,99237.16
2024-02-11T23:27:50.774Z,99237.34
2024-02-11T23:30:19.107Z,99235.63
2024-02-11T23:32:48.823Z,99229.53
2024-02-11T23:35:17.464Z,99233.31
2024-02-11T23:37:46.978Z,99235.16
2024-02-11T23:40:16.325Z,99235.38
2024-02-11T23:42:45.001Z,99230.94
2024-02-11T23:45:15.890Z,99228.59
2024-02-11T23:47:44.588Z,99231.53
2024-02-11T23:50:16.446Z,99237.00
2024-02-11T23:52:48.996Z,99237.00
2024-02-11T23:55:17.305Z,99235.97
2024-02-11T23:57:46.091Z,99234.91
